createdAt,value
2023-11-18T00:01:07.676Z,55.58
2023-11-18T00:03:34.447Z,55.33
2023-11-18T00:06:01.188Z,54.69
2023-11-18T00:08:28.094Z,53.96
2023-11-18T00:10:55.337Z,53.43
2023-11-18T00:13:22.757Z,52.65
2023-11-18T00:15:49.632Z,52.37
2023-11-18T00:18:16.999Z,52.39
2023-11-18T00:20:44.457Z,52.61
2023-11-18T00:23:11.240Z,52.61
2023-11-18T00:25:41.176Z,53.01
2023-11-18T00:28:10.573Z,53.69
2023-11-18T00:30:37.324Z,54.25
2023-11-18T00:33:04.405Z,54.45
2023-11-18T00:35:33.405Z,54.84
2023-11-18T00:38:00.430Z,53.99
2023-11-18T00:40:31.112Z,55.00
2023-11-18T00:42:58.384Z,56.02
2023-11-18T00:45:25.540Z,55.34
2023-11-18T00:47:52.338Z,55.20
2023-11-18T00:50:19.338Z,55.24
2023-11-18T00:52:51.138Z,54.66
2023-11-18T00:55:21.405Z,54.52
2023-11-18T00:57:48.339Z,54.22
2023-11-18T01:00:23.146Z,53.75
2023-11-18T01:02:51.379Z,53.86
2023-11-18T01:05:18.521Z,53.96
2023-11-18T01:07:45.453Z,54.17
2023-11-18T01:10:15.121Z,54.33
2023-11-18T01:12:43.100Z,54.30
2023-11-18T01:15:11.770Z,54.26
2023-11-18T01:17:39.716Z,54.08
2023-11-18T01:20:11.951Z,53.84
2023-11-18T01:22:40.599Z,52.71
2023-11-18T01:25:09.871Z,52.67
2023-11-18T01:27:36.758Z,52.76
2023-11-18T01:30:05.956Z,52.56
2023-11-18T01:32:33.195Z,52.15
2023-11-18T01:35:00.268Z,52.46
2023-11-18T01:40:16.765Z,52.54
2023-11-18T01:42:45.096Z,52.62
2023-11-18T01:45:13.226Z,52.51
2023-11-18T01:47:41.159Z,51.89
2023-11-18T01:50:10.578Z,51.48
2023-11-18T01:52:37.580Z,50.75
2023-11-18T01:55:08.093Z,50.47
2023-11-18T01:57:35.548Z,50.62
2023-11-18T02:00:07.504Z,50.83
2023-11-18T02:02:41.404Z,51.03
2023-11-18T02:05:08.880Z,51.08
2023-11-18T02:07:38.685Z,51.24
2023-11-18T02:10:10.557Z,51.25
2023-11-18T02:13:13.473Z,51.60
2023-11-18T02:15:42.101Z,50.85
2023-11-18T02:18:11.339Z,50.77
2023-11-18T02:20:39.685Z,51.27
2023-11-18T02:23:08.769Z,51.14
2023-11-18T02:25:40.486Z,51.20
2023-11-18T02:28:07.309Z,51.20
2023-11-18T02:30:34.347Z,51.23
2023-11-18T02:33:06.791Z,50.72
2023-11-18T02:35:38.569Z,50.59
2023-11-18T02:38:06.540Z,50.93
2023-11-18T02:40:36.670Z,51.74
2023-11-18T02:43:06.374Z,51.49
2023-11-18T02:45:37.220Z,51.86
2023-11-18T02:48:07.823Z,51.91
2023-11-18T02:50:39.354Z,51.79
2023-11-18T02:53:06.595Z,51.73
2023-11-18T02:55:33.757Z,52.18
2023-11-18T02:58:06.559Z,52.06
2023-11-18T03:00:35.055Z,51.75
2023-11-18T03:03:01.846Z,51.58
2023-11-18T03:05:28.544Z,51.61
2023-11-18T03:07:58.321Z,51.63
2023-11-18T03:10:25.170Z,51.93
2023-11-18T03:12:56.437Z,52.02
2023-11-18T03:15:24.294Z,52.07
2023-11-18T03:17:53.188Z,52.25
2023-11-18T03:20:22.034Z,51.90
2023-11-18T03:22:49.102Z,51.94
2023-11-18T03:25:16.845Z,52.05
2023-11-18T03:27:45.623Z,52.10
2023-11-18T03:30:12.764Z,53.09
2023-11-18T03:32:43.739Z,52.21
2023-11-18T03:35:11.072Z,52.54
2023-11-18T03:37:43.107Z,51.89
2023-11-18T03:40:15.472Z,52.55
2023-11-18T03:42:43.816Z,51.93
2023-11-18T03:45:11.334Z,52.20
2023-11-18T03:47:38.591Z,52.80
2023-11-18T03:50:06.834Z,52.03
2023-11-18T03:52:34.067Z,51.65
2023-11-18T03:55:00.968Z,51.91
2023-11-18T03:57:27.871Z,52.27
2023-11-18T03:59:54.985Z,51.62
2023-11-18T04:02:21.811Z,51.40
2023-11-18T04:04:49.845Z,51.20
2023-11-18T04:07:16.657Z,51.47
2023-11-18T04:09:45.155Z,52.16
2023-11-18T04:12:12.038Z,53.13
2023-11-18T04:14:39.242Z,53.15
2023-11-18T04:17:07.485Z,53.93
2023-11-18T04:19:36.292Z,54.40
2023-11-18T04:22:03.169Z,54.70
2023-11-18T04:24:30.030Z,55.10
2023-11-18T04:26:56.950Z,54.98
2023-11-18T04:29:24.461Z,55.10
2023-11-18T04:31:51.843Z,55.18
2023-11-18T04:34:18.709Z,55.30
2023-11-18T04:36:45.769Z,55.57
2023-11-18T04:39:13.413Z,55.84
2023-11-18T04:41:40.909Z,55.83
2023-11-18T04:44:08.468Z,55.91
2023-11-18T04:46:37.215Z,56.24
2023-11-18T04:49:04.249Z,56.48
2023-11-18T04:51:31.212Z,56.52
2023-11-18T04:53:58.260Z,56.47
2023-11-18T04:56:25.207Z,56.39
2023-11-18T04:58:51.980Z,56.52
2023-11-18T05:01:19.648Z,56.53
2023-11-18T05:03:46.529Z,56.91
2023-11-18T05:06:13.467Z,56.75
2023-11-18T05:08:40.223Z,56.97
2023-11-18T05:11:07.237Z,56.86
2023-11-18T05:13:35.215Z,56.93
2023-11-18T05:16:02.405Z,56.98
2023-11-18T05:18:34.685Z,57.37
2023-11-18T05:21:01.852Z,57.96
2023-11-18T05:23:30.668Z,58.35
2023-11-18T05:25:57.737Z,58.77
2023-11-18T05:28:25.284Z,58.76
2023-11-18T05:30:53.419Z,58.59
2023-11-18T05:33:20.767Z,59.36
2023-11-18T05:35:50.572Z,59.25
2023-11-18T05:38:23.103Z,58.89
2023-11-18T05:40:57.705Z,59.00
2023-11-18T05:43:37.994Z,59.39
2023-11-18T05:46:25.925Z,59.51
2023-11-18T05:48:54.144Z,59.52
2023-11-18T05:51:23.240Z,59.66
2023-11-18T05:53:50.619Z,59.50
2023-11-18T05:56:18.035Z,59.52
2023-11-18T05:58:45.523Z,59.46
2023-11-18T06:01:13.909Z,59.05
2023-11-18T06:03:41.134Z,59.12
2023-11-18T06:06:11.883Z,59.42
2023-11-18T06:08:43.035Z,59.41
2023-11-18T06:11:14.481Z,59.20
2023-11-18T06:13:43.459Z,59.92
2023-11-18T06:16:18.176Z,59.37
2023-11-18T06:18:45.944Z,59.41
2023-11-18T06:21:17.430Z,60.10
2023-11-18T06:23:46.110Z,60.19
2023-11-18T06:26:13.184Z,60.16
2023-11-18T06:28:41.397Z,60.71
2023-11-18T06:31:10.232Z,60.66
2023-11-18T06:33:44.380Z,60.70
2023-11-18T06:36:14.470Z,60.52
2023-11-18T06:38:42.318Z,60.80
2023-11-18T06:41:13.584Z,60.67
2023-11-18T06:43:57.977Z,60.91
2023-11-18T06:46:41.505Z,60.92
2023-11-18T06:49:12.373Z,61.20
2023-11-18T06:51:40.077Z,61.23
2023-11-18T06:54:11.757Z,60.96
2023-11-18T06:56:46.955Z,60.87
2023-11-18T06:59:16.453Z,61.16
2023-11-18T07:01:45.886Z,61.44
2023-11-18T07:04:15.801Z,61.19
2023-11-18T07:06:44.538Z,61.35
2023-11-18T07:09:19.312Z,61.53
2023-11-18T07:11:48.662Z,61.32
2023-11-18T07:14:16.269Z,61.43
2023-11-18T07:16:44.269Z,61.30
2023-11-18T07:19:18.996Z,61.57
2023-11-18T07:21:45.753Z,61.25
2023-11-18T07:24:12.390Z,61.20
2023-11-18T07:26:39.135Z,61.13
2023-11-18T07:29:09.080Z,60.20
2023-11-18T07:31:37.463Z,60.64
2023-11-18T07:34:07.118Z,62.07
2023-11-18T07:36:34.689Z,61.87
2023-11-18T07:39:04.039Z,61.42
2023-11-18T07:41:33.736Z,60.60
2023-11-18T07:44:01.716Z,62.14
2023-11-18T07:46:32.154Z,60.83
2023-11-18T07:48:59.522Z,60.80
2023-11-18T07:51:26.353Z,61.10
2023-11-18T07:53:54.344Z,62.28
2023-11-18T07:56:23.752Z,62.13
2023-11-18T07:58:53.198Z,61.44
2023-11-18T08:01:23.045Z,62.59
2023-11-18T08:03:52.648Z,62.37
2023-11-18T08:06:19.987Z,62.07
2023-11-18T08:08:49.082Z,62.14
2023-11-18T08:11:16.095Z,62.00
2023-11-18T08:13:43.304Z,62.20
2023-11-18T08:16:10.440Z,62.35
2023-11-18T08:18:38.152Z,62.34
2023-11-18T08:21:08.276Z,62.56
2023-11-18T08:23:35.710Z,62.56
2023-11-18T08:26:03.163Z,62.18
2023-11-18T08:28:30.421Z,62.26
2023-11-18T08:30:57.165Z,62.10
2023-11-18T08:33:27.215Z,61.87
2023-11-18T08:35:53.951Z,61.56
2023-11-18T08:38:21.058Z,60.99
2023-11-18T08:40:50.138Z,60.91
2023-11-18T08:43:18.057Z,61.52
2023-11-18T08:45:46.078Z,62.06
2023-11-18T08:48:13.210Z,61.40
2023-11-18T08:50:44.392Z,61.33
2023-11-18T08:53:13.297Z,61.37
2023-11-18T08:55:41.939Z,60.89
2023-11-18T08:58:22.939Z,60.96
2023-11-18T09:00:55.913Z,59.19
2023-11-18T09:03:27.315Z,58.73
2023-11-18T09:05:59.805Z,58.93
2023-11-18T09:08:28.404Z,59.06
2023-11-18T09:10:55.922Z,60.48
2023-11-18T09:13:36.530Z,62.67
2023-11-18T09:16:10.289Z,62.40
2023-11-18T09:18:43.128Z,61.65
2023-11-18T09:21:20.724Z,62.56
2023-11-18T09:23:50.666Z,62.23
2023-11-18T09:26:18.050Z,62.39
2023-11-18T09:28:46.721Z,61.82
2023-11-18T09:31:13.869Z,62.40
2023-11-18T09:33:48.162Z,61.36
2023-11-18T09:36:15.421Z,60.75
2023-11-18T09:38:42.840Z,61.02
2023-11-18T09:41:15.109Z,61.01
2023-11-18T09:43:46.765Z,60.40
2023-11-18T09:46:17.148Z,60.12
2023-11-18T09:49:01.340Z,60.59
2023-11-18T09:51:31.314Z,59.90
2023-11-18T09:54:02.643Z,60.77
2023-11-18T09:56:45.146Z,59.96
2023-11-18T09:59:29.770Z,60.86
2023-11-18T10:01:59.194Z,59.89
2023-11-18T10:04:29.330Z,60.04
2023-11-18T10:06:57.948Z,59.92
2023-11-18T10:09:41.279Z,59.17
2023-11-18T10:12:13.887Z,59.97
2023-11-18T10:14:45.141Z,59.11
2023-11-18T10:17:15.990Z,58.61
2023-11-18T10:19:54.000Z,57.60
2023-11-18T10:22:27.564Z,57.77
2023-11-18T10:24:58.906Z,58.57
2023-11-18T10:27:27.837Z,58.10
2023-11-18T10:29:58.865Z,57.29
2023-11-18T10:32:29.251Z,57.59
2023-11-18T10:34:59.891Z,56.87
2023-11-18T10:37:27.564Z,56.10
2023-11-18T10:39:54.385Z,57.26
2023-11-18T10:42:21.410Z,58.31
2023-11-18T10:45:04.685Z,58.71
2023-11-18T10:47:40.527Z,58.61
2023-11-18T10:50:11.350Z,58.67
2023-11-18T10:52:42.565Z,57.79
2023-11-18T10:55:13.796Z,57.57
2023-11-18T10:57:43.732Z,57.24
2023-11-18T11:00:15.030Z,57.33
2023-11-18T11:02:43.390Z,57.29
2023-11-18T11:05:20.939Z,56.94
2023-11-18T11:07:50.071Z,57.13
2023-11-18T11:10:17.764Z,56.88
2023-11-18T11:12:54.781Z,56.53
2023-11-18T11:15:29.585Z,56.11
2023-11-18T11:18:10.070Z,54.74
2023-11-18T11:20:43.867Z,55.43
2023-11-18T11:23:28.058Z,55.96
2023-11-18T11:26:10.596Z,55.88
2023-11-18T11:29:09.251Z,56.88
2023-11-18T11:31:43.910Z,55.86
2023-11-18T11:34:20.410Z,56.68
2023-11-18T11:36:53.974Z,57.01
2023-11-18T11:39:27.322Z,57.50
2023-11-18T11:41:58.546Z,58.54
2023-11-18T11:44:31.232Z,56.56
2023-11-18T11:47:01.910Z,55.94
2023-11-18T11:49:38.275Z,55.69
2023-11-18T11:52:17.595Z,55.52
2023-11-18T11:54:51.631Z,54.77
2023-11-18T11:57:18.393Z,56.04
2023-11-18T11:59:46.073Z,56.41
2023-11-18T12:02:17.539Z,57.89
2023-11-18T12:04:53.797Z,57.67
2023-11-18T12:07:28.524Z,55.58
2023-11-18T12:09:59.556Z,54.53
2023-11-18T12:12:28.222Z,55.16
2023-11-18T12:14:57.950Z,55.45
2023-11-18T12:17:29.917Z,54.97
2023-11-18T12:20:08.107Z,55.61
2023-11-18T12:23:28.486Z,55.82
2023-11-18T12:25:58.247Z,56.50
2023-11-18T12:28:35.578Z,54.77
2023-11-18T12:31:07.925Z,55.44
2023-11-18T12:34:11.232Z,55.90
2023-11-18T12:36:56.582Z,55.96
2023-11-18T12:40:14.269Z,54.99
2023-11-18T12:42:45.935Z,54.54
2023-11-18T12:45:22.088Z,53.97
2023-11-18T12:47:53.387Z,53.23
2023-11-18T12:50:26.188Z,53.44
2023-11-18T12:52:53.835Z,52.26
2023-11-18T12:55:24.398Z,52.92
2023-11-18T12:57:55.311Z,54.02
2023-11-18T13:00:28.820Z,53.06
2023-11-18T13:02:56.387Z,52.58
2023-11-18T13:05:23.814Z,52.58
2023-11-18T13:07:51.095Z,51.34
2023-11-18T13:10:18.479Z,52.11
2023-11-18T13:12:46.975Z,52.06
2023-11-18T13:15:13.886Z,51.27
2023-11-18T13:17:42.152Z,51.30
2023-11-18T13:20:19.041Z,51.14
2023-11-18T13:22:48.466Z,51.16
2023-11-18T13:25:16.168Z,52.22
2023-11-18T13:27:43.063Z,52.82
2023-11-18T13:30:14.401Z,51.57
2023-11-18T13:32:43.518Z,52.29
2023-11-18T13:35:14.717Z,51.66
2023-11-18T13:37:45.368Z,52.22
2023-11-18T13:40:15.475Z,52.62
2023-11-18T13:42:48.090Z,52.88
2023-11-18T13:45:30.643Z,53.48
2023-11-18T13:48:03.435Z,53.37
2023-11-18T13:50:30.412Z,53.01
2023-11-18T13:52:58.758Z,52.61
2023-11-18T13:55:29.222Z,53.52
2023-11-18T13:57:58.930Z,54.85
2023-11-18T14:00:31.354Z,55.58
2023-11-18T14:03:00.981Z,55.51
2023-11-18T14:05:28.164Z,55.68
2023-11-18T14:08:08.734Z,56.22
2023-11-18T14:10:39.556Z,53.70
2023-11-18T14:13:07.278Z,53.70
2023-11-18T14:15:36.626Z,53.77
2023-11-18T14:18:04.694Z,53.22
2023-11-18T14:20:32.717Z,53.46
2023-11-18T14:23:00.169Z,54.69
2023-11-18T14:25:28.618Z,54.31
2023-11-18T14:27:55.431Z,54.84
2023-11-18T14:30:25.625Z,53.37
2023-11-18T14:32:53.323Z,54.84
2023-11-18T14:35:21.880Z,54.23
2023-11-18T14:37:48.970Z,53.23
2023-11-18T14:40:17.318Z,55.66
2023-11-18T14:42:46.737Z,55.60
2023-11-18T14:45:15.910Z,55.68
2023-11-18T14:47:46.040Z,54.23
2023-11-18T14:50:19.488Z,55.23
2023-11-18T14:52:52.980Z,54.00
2023-11-18T14:55:20.081Z,54.36
2023-11-18T14:57:47.790Z,54.92
2023-11-18T15:00:22.919Z,54.57
2023-11-18T15:02:51.766Z,54.40
2023-11-18T15:05:22.298Z,53.95
2023-11-18T15:07:54.300Z,54.43
2023-11-18T15:10:24.982Z,53.96
2023-11-18T15:12:54.438Z,52.82
2023-11-18T15:15:32.577Z,55.37
2023-11-18T15:18:00.925Z,53.65
2023-11-18T15:20:28.009Z,53.04
2023-11-18T15:22:55.331Z,54.10
2023-11-18T15:25:22.321Z,53.86
2023-11-18T15:27:50.627Z,53.48
2023-11-18T15:30:18.127Z,53.69
2023-11-18T15:32:46.700Z,53.87
2023-11-18T15:35:17.582Z,54.56
2023-11-18T15:37:48.207Z,54.51
2023-11-18T15:40:20.797Z,54.93
2023-11-18T15:42:51.632Z,55.80
2023-11-18T15:45:20.598Z,56.81
2023-11-18T15:47:49.646Z,56.81
2023-11-18T15:50:18.063Z,57.08
2023-11-18T15:52:50.580Z,57.34
2023-11-18T15:55:19.130Z,57.62
2023-11-18T15:57:56.442Z,57.54
2023-11-18T16:00:27.873Z,57.80
2023-11-18T16:03:01.874Z,58.01
2023-11-18T16:05:35.460Z,58.26
2023-11-18T16:08:05.346Z,58.26
2023-11-18T16:10:33.255Z,58.83
2023-11-18T16:13:02.072Z,58.46
2023-11-18T16:15:31.476Z,58.62
2023-11-18T16:18:00.241Z,58.78
2023-11-18T16:20:33.746Z,59.16
2023-11-18T16:23:04.326Z,59.50
2023-11-18T16:25:31.968Z,59.40
2023-11-18T16:28:01.274Z,59.17
2023-11-18T16:30:31.306Z,59.56
2023-11-18T16:33:00.317Z,59.50
2023-11-18T16:35:28.295Z,59.28
2023-11-18T16:37:56.248Z,58.86
2023-11-18T16:40:25.286Z,59.43
2023-11-18T16:42:56.918Z,58.90
2023-11-18T16:45:26.027Z,59.08
2023-11-18T16:47:55.361Z,59.24
2023-11-18T16:50:24.777Z,59.08
2023-11-18T16:52:52.258Z,59.33
2023-11-18T16:55:19.837Z,59.57
2023-11-18T16:57:48.892Z,59.13
2023-11-18T17:00:17.862Z,59.42
2023-11-18T17:02:52.285Z,59.17
2023-11-18T17:05:19.378Z,59.22
2023-11-18T17:07:46.762Z,59.29
2023-11-18T17:10:13.622Z,59.26
2023-11-18T17:12:44.235Z,59.08
2023-11-18T17:15:15.021Z,59.58
2023-11-18T17:17:46.950Z,58.96
2023-11-18T17:20:16.026Z,59.19
2023-11-18T17:22:44.246Z,59.33
2023-11-18T17:25:24.682Z,59.61
2023-11-18T17:27:54.516Z,59.70
2023-11-18T17:30:22.126Z,59.91
2023-11-18T17:32:53.176Z,59.46
2023-11-18T17:35:21.595Z,59.40
2023-11-18T17:37:48.789Z,59.39
2023-11-18T17:40:16.944Z,59.65
2023-11-18T17:42:46.066Z,59.37
2023-11-18T17:45:14.147Z,59.39
2023-11-18T17:47:44.499Z,59.35
2023-11-18T17:50:15.456Z,59.22
2023-11-18T17:52:47.582Z,59.36
2023-11-18T17:55:14.611Z,59.33
2023-11-18T17:57:42.494Z,59.42
2023-11-18T18:00:13.856Z,59.16
2023-11-18T18:02:42.464Z,58.98
2023-11-18T18:05:10.004Z,58.99
2023-11-18T18:07:37.339Z,59.07
2023-11-18T18:10:04.791Z,58.82
2023-11-18T18:12:32.042Z,58.78
2023-11-18T18:14:58.820Z,58.77
2023-11-18T18:17:25.670Z,58.76
2023-11-18T18:19:52.617Z,58.95
2023-11-18T18:22:19.623Z,59.04
2023-11-18T18:24:46.357Z,58.60
2023-11-18T18:27:21.381Z,58.96
2023-11-18T18:29:48.482Z,59.04
2023-11-18T18:32:17.176Z,59.22
2023-11-18T18:34:43.951Z,58.59
2023-11-18T18:37:10.711Z,58.69
2023-11-18T18:39:37.450Z,58.65
2023-11-18T18:42:04.767Z,58.72
2023-11-18T18:44:31.837Z,58.64
2023-11-18T18:46:59.033Z,58.73
2023-11-18T18:49:25.895Z,58.68
2023-11-18T18:51:52.810Z,58.60
2023-11-18T18:54:19.703Z,58.74
2023-11-18T18:56:46.638Z,59.09
2023-11-18T18:59:13.693Z,58.94
2023-11-18T19:01:41.468Z,58.84
2023-11-18T19:04:09.455Z,58.35
2023-11-18T19:06:37.286Z,58.20
2023-11-18T19:09:05.423Z,58.16
2023-11-18T19:11:32.609Z,59.23
2023-11-18T19:13:59.992Z,59.16
2023-11-18T19:16:27.420Z,59.65
2023-11-18T19:18:56.948Z,59.91
2023-11-18T19:21:26.847Z,60.17
2023-11-18T19:23:53.750Z,60.39
2023-11-18T19:26:22.348Z,60.80
2023-11-18T19:28:49.197Z,60.70
2023-11-18T19:31:16.889Z,60.73
2023-11-18T19:33:44.126Z,60.55
2023-11-18T19:36:11.772Z,60.68
2023-11-18T19:38:39.277Z,60.81
2023-11-18T19:41:06.994Z,61.84
2023-11-18T19:43:36.950Z,61.20
2023-11-18T19:46:04.312Z,61.19
2023-11-18T19:48:32.975Z,61.17
2023-11-18T19:51:00.039Z,61.11
2023-11-18T19:53:27.492Z,61.27
2023-11-18T19:55:54.548Z,61.05
2023-11-18T19:58:23.471Z,60.80
2023-11-18T20:00:51.250Z,61.14
2023-11-18T20:03:18.239Z,61.13
2023-11-18T20:05:45.216Z,60.81
2023-11-18T20:08:12.002Z,61.31
2023-11-18T20:10:38.742Z,61.22
2023-11-18T20:13:06.266Z,61.20
2023-11-18T20:15:34.156Z,60.96
2023-11-18T20:18:01.241Z,60.81
2023-11-18T20:20:28.577Z,60.73
2023-11-18T20:22:55.993Z,60.49
2023-11-18T20:25:24.060Z,60.49
2023-11-18T20:27:51.348Z,60.84
2023-11-18T20:30:18.739Z,60.83
2023-11-18T20:32:45.776Z,60.33
2023-11-18T20:35:13.826Z,60.18
2023-11-18T20:37:40.989Z,60.14
2023-11-18T20:40:12.356Z,60.72
2023-11-18T20:42:42.077Z,60.79
2023-11-18T20:45:15.440Z,60.53
2023-11-18T20:47:42.726Z,60.33
2023-11-18T20:50:12.894Z,60.64
2023-11-18T20:52:41.361Z,60.63
2023-11-18T20:55:11.486Z,60.30
2023-11-18T20:57:39.344Z,60.34
2023-11-18T21:00:08.704Z,60.29
2023-11-18T21:02:36.307Z,60.73
2023-11-18T21:05:06.816Z,61.19
2023-11-18T21:07:34.176Z,60.06
2023-11-18T21:10:01.175Z,60.04
2023-11-18T21:12:27.957Z,59.98
2023-11-18T21:14:54.760Z,60.11
2023-11-18T21:17:26.490Z,60.45
2023-11-18T21:19:54.250Z,60.25
2023-11-18T21:22:21.038Z,59.85
2023-11-18T21:24:47.918Z,60.15
2023-11-18T21:27:15.899Z,60.04
2023-11-18T21:29:42.977Z,60.18
2023-11-18T21:32:12.245Z,60.08
2023-11-18T21:34:41.926Z,60.14
2023-11-18T21:37:12.299Z,59.85
2023-11-18T21:39:42.559Z,60.16
2023-11-18T21:42:09.883Z,60.46
2023-11-18T21:44:38.267Z,59.47
2023-11-18T21:47:05.768Z,59.65
2023-11-18T21:49:33.181Z,60.71
2023-11-18T21:52:00.727Z,60.09
2023-11-18T21:54:31.914Z,60.18
2023-11-18T21:56:59.289Z,60.24
2023-11-18T21:59:27.563Z,60.66
2023-11-18T22:01:56.199Z,60.26
2023-11-18T22:04:23.293Z,59.52
2023-11-18T22:06:52.562Z,59.31
2023-11-18T22:09:21.260Z,60.18
2023-11-18T22:11:49.315Z,60.76
2023-11-18T22:14:17.231Z,60.45
2023-11-18T22:16:44.097Z,60.44
2023-11-18T22:19:11.015Z,60.39
2023-11-18T22:21:38.313Z,60.87
2023-11-18T22:24:05.414Z,60.65
2023-11-18T22:26:32.257Z,60.72
2023-11-18T22:28:59.038Z,60.41
2023-11-18T22:31:27.252Z,60.23
2023-11-18T22:33:54.100Z,60.05
2023-11-18T22:36:20.769Z,60.07
2023-11-18T22:38:47.489Z,59.90
2023-11-18T22:41:14.412Z,59.42
2023-11-18T22:43:41.334Z,59.85
2023-11-18T22:46:12.008Z,59.86
2023-11-18T22:48:39.024Z,60.32
2023-11-18T22:51:07.076Z,60.42
2023-11-18T22:53:33.939Z,60.85
2023-11-18T22:56:00.680Z,60.49
2023-11-18T22:58:27.437Z,59.72
2023-11-18T23:00:56.296Z,60.39
2023-11-18T23:03:23.535Z,60.35
2023-11-18T23:05:53.951Z,60.34
2023-11-18T23:08:23.537Z,60.85
2023-11-18T23:10:52.442Z,59.99
2023-11-18T23:13:20.934Z,59.88
2023-11-18T23:15:48.238Z,59.67
2023-11-18T23:18:15.727Z,58.63
2023-11-18T23:20:42.697Z,58.83
2023-11-18T23:23:09.576Z,58.38
2023-11-18T23:25:36.642Z,58.38
2023-11-18T23:28:06.201Z,58.44
2023-11-18T23:30:33.213Z,57.67
2023-11-18T23:33:00.421Z,57.77
2023-11-18T23:35:29.171Z,57.72
2023-11-18T23:37:57.538Z,58.39
2023-11-18T23:40:24.675Z,58.61
2023-11-18T23:42:52.000Z,59.00
2023-11-18T23:45:19.983Z,58.21
2023-11-18T23:47:51.934Z,58.01
2023-11-18T23:50:21.180Z,57.78
2023-11-18T23:52:48.218Z,57.94
2023-11-18T23:55:15.684Z,57.65
2023-11-18T23:57:43.255Z,57.41
